sensor_id;sensor_type;location;lat;lon;timestamp;P1;durP1;ratioP1;P2;durP2;ratioP2
51036;SDS011;37064;59.346;18.058;2023-03-19T00:01:51;34.20;;;14.65;;
51036;SDS011;37064;59.346;18.058;2023-03-19T00:04:17;38.08;;;14.60;;
51036;SDS011;37064;59.346;18.058;2023-03-19T00:06:43;35.65;;;14.05;;
51036;SDS011;37064;59.346;18.058;2023-03-19T00:09:10;33.47;;;14.18;;
51036;SDS011;37064;59.346;18.058;2023-03-19T00:11:36;28.42;;;13.00;;
51036;SDS011;37064;59.346;18.058;2023-03-19T00:14:02;30.65;;;13.70;;
51036;SDS011;37064;59.346;18.058;2023-03-19T00:16:28;30.40;;;12.27;;
51036;SDS011;37064;59.346;18.058;2023-03-19T00:18:54;32.65;;;14.18;;
51036;SDS011;37064;59.346;18.058;2023-03-19T00:21:21;28.35;;;12.63;;
51036;SDS011;37064;59.346;18.058;2023-03-19T00:23:47;35.15;;;13.95;;
51036;SDS011;37064;59.346;18.058;2023-03-19T00:26:13;33.08;;;14.73;;
51036;SDS011;37064;59.346;18.058;2023-03-19T00:28:39;30.80;;;12.88;;
51036;SDS011;37064;59.346;18.058;2023-03-19T00:31:09;35.70;;;14.15;;
51036;SDS011;37064;59.346;18.058;2023-03-19T00:33:36;31.20;;;12.35;;
51036;SDS011;37064;59.346;18.058;2023-03-19T00:36:02;35.80;;;12.32;;
51036;SDS011;37064;59.346;18.058;2023-03-19T00:38:29;33.88;;;13.57;;
51036;SDS011;37064;59.346;18.058;2023-03-19T00:40:55;32.42;;;13.35;;
51036;SDS011;37064;59.346;18.058;2023-03-19T00:43:21;29.33;;;13.48;;
51036;SDS011;37064;59.346;18.058;2023-03-19T00:45:47;32.47;;;12.45;;
51036;SDS011;37064;59.346;18.058;2023-03-19T00:48:13;28.30;;;12.02;;
51036;SDS011;37064;59.346;18.058;2023-03-19T00:50:39;30.40;;;12.95;;
51036;SDS011;37064;59.346;18.058;2023-03-19T00:53:05;30.90;;;12.85;;
51036;SDS011;37064;59.346;18.058;2023-03-19T00:55:31;31.27;;;11.35;;
51036;SDS011;37064;59.346;18.058;2023-03-19T00:57:57;32.13;;;12.70;;
51036;SDS011;37064;59.346;18.058;2023-03-19T01:00:23;29.33;;;11.35;;
51036;SDS011;37064;59.346;18.058;2023-03-19T01:02:49;26.30;;;9.75;;
51036;SDS011;37064;59.346;18.058;2023-03-19T01:05:15;30.08;;;13.20;;
51036;SDS011;37064;59.346;18.058;2023-03-19T01:07:41;30.60;;;12.75;;
51036;SDS011;37064;59.346;18.058;2023-03-19T01:10:08;27.20;;;12.93;;
51036;SDS011;37064;59.346;18.058;2023-03-19T01:12:34;29.77;;;12.05;;
51036;SDS011;37064;59.346;18.058;2023-03-19T01:15:00;32.83;;;13.98;;
51036;SDS011;37064;59.346;18.058;2023-03-19T01:17:26;29.95;;;12.13;;
51036;SDS011;37064;59.346;18.058;2023-03-19T01:19:52;34.53;;;15.48;;
51036;SDS011;37064;59.346;18.058;2023-03-19T01:22:18;27.60;;;12.15;;
51036;SDS011;37064;59.346;18.058;2023-03-19T01:24:45;27.23;;;10.57;;
51036;SDS011;37064;59.346;18.058;2023-03-19T01:27:11;30.80;;;13.65;;
51036;SDS011;37064;59.346;18.058;2023-03-19T01:29:37;27.80;;;10.98;;
51036;SDS011;37064;59.346;18.058;2023-03-19T01:32:03;34.90;;;12.90;;
51036;SDS011;37064;59.346;18.058;2023-03-19T01:34:30;27.08;;;12.60;;
51036;SDS011;37064;59.346;18.058;2023-03-19T01:36:56;29.15;;;12.65;;
51036;SDS011;37064;59.346;18.058;2023-03-19T01:39:22;30.60;;;13.63;;
51036;SDS011;37064;59.346;18.058;2023-03-19T01:41:48;35.85;;;14.40;;
51036;SDS011;37064;59.346;18.058;2023-03-19T01:44:33;30.83;;;13.35;;
51036;SDS011;37064;59.346;18.058;2023-03-19T01:47:00;31.05;;;11.93;;
51036;SDS011;37064;59.346;18.058;2023-03-19T01:49:27;31.83;;;12.45;;
51036;SDS011;37064;59.346;18.058;2023-03-19T01:51:54;29.33;;;12.38;;
51036;SDS011;37064;59.346;18.058;2023-03-19T01:54:21;26.10;;;12.07;;
51036;SDS011;37064;59.346;18.058;2023-03-19T01:56:48;26.75;;;11.75;;
51036;SDS011;37064;59.346;18.058;2023-03-19T01:59:18;28.58;;;11.70;;
51036;SDS011;37064;59.346;18.058;2023-03-19T02:01:56;27.00;;;11.57;;
51036;SDS011;37064;59.346;18.058;2023-03-19T02:04:23;28.45;;;11.75;;
51036;SDS011;37064;59.346;18.058;2023-03-19T02:06:50;28.10;;;12.10;;
51036;SDS011;37064;59.346;18.058;2023-03-19T02:09:16;26.77;;;10.88;;
51036;SDS011;37064;59.346;18.058;2023-03-19T02:11:43;28.48;;;10.07;;
51036;SDS011;37064;59.346;18.058;2023-03-19T02:14:10;26.95;;;12.25;;
51036;SDS011;37064;59.346;18.058;2023-03-19T02:16:37;32.42;;;12.63;;
51036;SDS011;37064;59.346;18.058;2023-03-19T02:19:03;23.65;;;10.55;;
51036;SDS011;37064;59.346;18.058;2023-03-19T02:21:30;25.63;;;10.40;;
51036;SDS011;37064;59.346;18.058;2023-03-19T02:24:16;26.75;;;11.32;;
51036;SDS011;37064;59.346;18.058;2023-03-19T02:26:45;26.40;;;11.45;;
51036;SDS011;37064;59.346;18.058;2023-03-19T02:29:12;21.88;;;8.85;;
51036;SDS011;37064;59.346;18.058;2023-03-19T02:31:38;23.73;;;8.90;;
51036;SDS011;37064;59.346;18.058;2023-03-19T02:34:05;24.90;;;10.23;;
51036;SDS011;37064;59.346;18.058;2023-03-19T02:36:36;37.33;;;10.00;;
51036;SDS011;37064;59.346;18.058;2023-03-19T02:39:04;21.25;;;9.05;;
51036;SDS011;37064;59.346;18.058;2023-03-19T02:41:32;25.85;;;9.15;;
51036;SDS011;37064;59.346;18.058;2023-03-19T02:43:59;25.58;;;10.50;;
51036;SDS011;37064;59.346;18.058;2023-03-19T02:46:26;24.48;;;11.63;;
51036;SDS011;37064;59.346;18.058;2023-03-19T02:48:52;27.70;;;11.70;;
51036;SDS011;37064;59.346;18.058;2023-03-19T02:51:18;22.02;;;9.75;;
51036;SDS011;37064;59.346;18.058;2023-03-19T02:53:44;22.90;;;9.02;;
51036;SDS011;37064;59.346;18.058;2023-03-19T02:56:11;22.35;;;9.35;;
51036;SDS011;37064;59.346;18.058;2023-03-19T02:58:37;22.02;;;8.60;;
51036;SDS011;37064;59.346;18.058;2023-03-19T03:01:03;21.48;;;9.18;;
51036;SDS011;37064;59.346;18.058;2023-03-19T03:03:30;15.85;;;7.85;;
51036;SDS011;37064;59.346;18.058;2023-03-19T03:05:56;21.70;;;10.40;;
51036;SDS011;37064;59.346;18.058;2023-03-19T03:08:22;15.75;;;8.25;;
51036;SDS011;37064;59.346;18.058;2023-03-19T03:10:48;18.88;;;8.85;;
51036;SDS011;37064;59.346;18.058;2023-03-19T03:13:14;21.73;;;9.30;;
51036;SDS011;37064;59.346;18.058;2023-03-19T03:15:41;18.88;;;8.57;;
51036;SDS011;37064;59.346;18.058;2023-03-19T03:18:07;15.32;;;8.13;;
51036;SDS011;37064;59.346;18.058;2023-03-19T03:20:33;15.70;;;7.72;;
51036;SDS011;37064;59.346;18.058;2023-03-19T03:22:59;17.05;;;7.88;;
51036;SDS011;37064;59.346;18.058;2023-03-19T03:25:25;18.10;;;8.02;;
51036;SDS011;37064;59.346;18.058;2023-03-19T03:27:51;15.23;;;7.95;;
51036;SDS011;37064;59.346;18.058;2023-03-19T03:30:17;14.57;;;7.15;;
51036;SDS011;37064;59.346;18.058;2023-03-19T03:32:44;17.58;;;8.70;;
51036;SDS011;37064;59.346;18.058;2023-03-19T03:35:10;18.85;;;9.30;;
51036;SDS011;37064;59.346;18.058;2023-03-19T03:37:37;13.50;;;7.53;;
51036;SDS011;37064;59.346;18.058;2023-03-19T03:40:04;16.77;;;8.05;;
51036;SDS011;37064;59.346;18.058;2023-03-19T03:42:32;14.70;;;7.53;;
51036;SDS011;37064;59.346;18.058;2023-03-19T03:44:58;14.77;;;8.60;;
51036;SDS011;37064;59.346;18.058;2023-03-19T03:47:24;12.43;;;7.00;;
51036;SDS011;37064;59.346;18.058;2023-03-19T03:49:50;15.00;;;7.80;;
51036;SDS011;37064;59.346;18.058;2023-03-19T03:52:16;16.20;;;9.00;;
51036;SDS011;37064;59.346;18.058;2023-03-19T03:54:42;16.13;;;7.30;;
51036;SDS011;37064;59.346;18.058;2023-03-19T03:57:08;14.35;;;6.63;;
51036;SDS011;37064;59.346;18.058;2023-03-19T03:59:34;12.60;;;6.55;;
51036;SDS011;37064;59.346;18.058;2023-03-19T04:02:00;11.38;;;5.50;;
51036;SDS011;37064;59.346;18.058;2023-03-19T04:04:27;12.27;;;6.45;;
51036;SDS011;37064;59.346;18.058;2023-03-19T04:06:53;12.95;;;8.18;;
51036;SDS011;37064;59.346;18.058;2023-03-19T04:09:19;10.02;;;5.63;;
51036;SDS011;37064;59.346;18.058;2023-03-19T04:11:46;11.65;;;5.70;;
51036;SDS011;37064;59.346;18.058;2023-03-19T04:14:12;8.35;;;5.13;;
51036;SDS011;37064;59.346;18.058;2023-03-19T04:16:39;10.32;;;5.20;;
51036;SDS011;37064;59.346;18.058;2023-03-19T04:19:05;10.35;;;5.70;;
51036;SDS011;37064;59.346;18.058;2023-03-19T04:21:31;10.15;;;5.70;;
51036;SDS011;37064;59.346;18.058;2023-03-19T04:23:57;11.32;;;6.45;;
51036;SDS011;37064;59.346;18.058;2023-03-19T04:26:23;9.00;;;5.03;;
51036;SDS011;37064;59.346;18.058;2023-03-19T04:28:50;10.95;;;6.53;;
51036;SDS011;37064;59.346;18.058;2023-03-19T04:31:16;11.50;;;6.75;;
51036;SDS011;37064;59.346;18.058;2023-03-19T04:33:42;12.00;;;6.75;;
51036;SDS011;37064;59.346;18.058;2023-03-19T04:36:08;12.50;;;6.38;;
51036;SDS011;37064;59.346;18.058;2023-03-19T04:38:34;11.85;;;6.47;;
51036;SDS011;37064;59.346;18.058;2023-03-19T04:41:00;10.32;;;5.82;;
51036;SDS011;37064;59.346;18.058;2023-03-19T04:43:26;10.57;;;6.80;;
51036;SDS011;37064;59.346;18.058;2023-03-19T04:45:52;9.88;;;6.28;;
51036;SDS011;37064;59.346;18.058;2023-03-19T04:48:18;11.02;;;6.60;;
51036;SDS011;37064;59.346;18.058;2023-03-19T04:50:44;13.65;;;6.50;;
51036;SDS011;37064;59.346;18.058;2023-03-19T04:53:11;10.77;;;6.50;;
51036;SDS011;37064;59.346;18.058;2023-03-19T04:55:37;11.88;;;6.32;;
51036;SDS011;37064;59.346;18.058;2023-03-19T04:58:03;10.45;;;5.65;;
51036;SDS011;37064;59.346;18.058;2023-03-19T05:00:29;11.25;;;7.10;;
51036;SDS011;37064;59.346;18.058;2023-03-19T05:02:56;10.80;;;6.15;;
51036;SDS011;37064;59.346;18.058;2023-03-19T05:05:22;12.40;;;7.35;;
51036;SDS011;37064;59.346;18.058;2023-03-19T05:07:48;11.13;;;6.25;;
51036;SDS011;37064;59.346;18.058;2023-03-19T05:10:14;10.27;;;6.18;;
51036;SDS011;37064;59.346;18.058;2023-03-19T05:12:40;10.98;;;5.90;;
51036;SDS011;37064;59.346;18.058;2023-03-19T05:15:07;9.35;;;5.15;;
51036;SDS011;37064;59.346;18.058;2023-03-19T05:17:33;12.27;;;6.50;;
51036;SDS011;37064;59.346;18.058;2023-03-19T05:20:00;14.75;;;6.50;;
51036;SDS011;37064;59.346;18.058;2023-03-19T05:22:26;16.17;;;6.40;;
51036;SDS011;37064;59.346;18.058;2023-03-19T05:24:52;14.52;;;6.47;;
51036;SDS011;37064;59.346;18.058;2023-03-19T05:27:19;10.18;;;5.45;;
51036;SDS011;37064;59.346;18.058;2023-03-19T05:29:45;16.55;;;7.32;;
51036;SDS011;37064;59.346;18.058;2023-03-19T05:32:12;11.85;;;6.95;;
51036;SDS011;37064;59.346;18.058;2023-03-19T05:34:38;11.82;;;5.75;;
51036;SDS011;37064;59.346;18.058;2023-03-19T05:37:04;10.48;;;5.95;;
51036;SDS011;37064;59.346;18.058;2023-03-19T05:39:30;13.65;;;6.43;;
51036;SDS011;37064;59.346;18.058;2023-03-19T05:41:56;10.68;;;5.63;;
51036;SDS011;37064;59.346;18.058;2023-03-19T05:44:22;12.32;;;6.22;;
51036;SDS011;37064;59.346;18.058;2023-03-19T05:46:48;19.45;;;7.80;;
51036;SDS011;37064;59.346;18.058;2023-03-19T05:49:14;9.38;;;5.35;;
51036;SDS011;37064;59.346;18.058;2023-03-19T05:51:40;10.45;;;5.68;;
51036;SDS011;37064;59.346;18.058;2023-03-19T05:54:06;10.80;;;5.55;;
51036;SDS011;37064;59.346;18.058;2023-03-19T05:56:32;12.98;;;6.32;;
51036;SDS011;37064;59.346;18.058;2023-03-19T05:58:58;15.52;;;6.10;;
51036;SDS011;37064;59.346;18.058;2023-03-19T06:01:25;9.93;;;5.57;;
51036;SDS011;37064;59.346;18.058;2023-03-19T06:03:51;12.75;;;6.53;;
51036;SDS011;37064;59.346;18.058;2023-03-19T06:06:16;11.48;;;5.85;;
51036;SDS011;37064;59.346;18.058;2023-03-19T06:08:42;11.63;;;6.18;;
51036;SDS011;37064;59.346;18.058;2023-03-19T06:11:08;12.30;;;6.47;;
51036;SDS011;37064;59.346;18.058;2023-03-19T06:13:35;9.50;;;5.63;;
51036;SDS011;37064;59.346;18.058;2023-03-19T06:16:01;11.02;;;5.43;;
51036;SDS011;37064;59.346;18.058;2023-03-19T06:18:27;9.52;;;5.32;;
51036;SDS011;37064;59.346;18.058;2023-03-19T06:20:53;11.82;;;6.13;;
51036;SDS011;37064;59.346;18.058;2023-03-19T06:23:19;10.23;;;6.00;;
51036;SDS011;37064;59.346;18.058;2023-03-19T06:25:45;9.38;;;5.47;;
51036;SDS011;37064;59.346;18.058;2023-03-19T06:28:11;10.98;;;5.25;;
51036;SDS011;37064;59.346;18.058;2023-03-19T06:30:37;12.57;;;6.38;;
51036;SDS011;37064;59.346;18.058;2023-03-19T06:33:03;10.90;;;5.82;;
51036;SDS011;37064;59.346;18.058;2023-03-19T06:35:29;10.60;;;6.03;;
51036;SDS011;37064;59.346;18.058;2023-03-19T06:37:56;9.82;;;5.30;;
51036;SDS011;37064;59.346;18.058;2023-03-19T06:40:22;8.88;;;5.22;;
51036;SDS011;37064;59.346;18.058;2023-03-19T06:42:48;11.55;;;5.68;;
51036;SDS011;37064;59.346;18.058;2023-03-19T06:45:14;8.60;;;4.93;;
51036;SDS011;37064;59.346;18.058;2023-03-19T06:47:42;10.57;;;5.35;;
51036;SDS011;37064;59.346;18.058;2023-03-19T06:50:09;9.85;;;5.00;;
51036;SDS011;37064;59.346;18.058;2023-03-19T06:52:36;10.30;;;6.05;;
51036;SDS011;37064;59.346;18.058;2023-03-19T06:55:03;8.00;;;5.38;;
51036;SDS011;37064;59.346;18.058;2023-03-19T06:57:30;9.13;;;5.07;;
51036;SDS011;37064;59.346;18.058;2023-03-19T06:59:57;9.07;;;5.22;;
51036;SDS011;37064;59.346;18.058;2023-03-19T07:02:23;10.05;;;5.15;;
51036;SDS011;37064;59.346;18.058;2023-03-19T07:04:50;7.20;;;4.40;;
51036;SDS011;37064;59.346;18.058;2023-03-19T07:07:16;7.15;;;4.50;;
51036;SDS011;37064;59.346;18.058;2023-03-19T07:09:42;9.25;;;5.13;;
51036;SDS011;37064;59.346;18.058;2023-03-19T07:12:08;8.00;;;4.57;;
51036;SDS011;37064;59.346;18.058;2023-03-19T07:14:34;8.35;;;4.60;;
51036;SDS011;37064;59.346;18.058;2023-03-19T07:17:00;8.27;;;5.25;;
51036;SDS011;37064;59.346;18.058;2023-03-19T07:19:26;7.75;;;5.32;;
51036;SDS011;37064;59.346;18.058;2023-03-19T07:21:52;8.20;;;4.65;;
51036;SDS011;37064;59.346;18.058;2023-03-19T07:24:18;7.35;;;4.65;;
51036;SDS011;37064;59.346;18.058;2023-03-19T07:26:44;8.25;;;5.15;;
51036;SDS011;37064;59.346;18.058;2023-03-19T07:29:11;8.32;;;4.93;;
51036;SDS011;37064;59.346;18.058;2023-03-19T07:31:37;7.97;;;4.80;;
51036;SDS011;37064;59.346;18.058;2023-03-19T07:34:03;11.18;;;5.75;;
51036;SDS011;37064;59.346;18.058;2023-03-19T07:36:30;8.68;;;6.00;;
51036;SDS011;37064;59.346;18.058;2023-03-19T07:38:56;9.10;;;5.97;;
51036;SDS011;37064;59.346;18.058;2023-03-19T07:41:22;9.38;;;5.47;;
51036;SDS011;37064;59.346;18.058;2023-03-19T07:43:48;9.32;;;5.93;;
51036;SDS011;37064;59.346;18.058;2023-03-19T07:46:14;9.95;;;5.85;;
51036;SDS011;37064;59.346;18.058;2023-03-19T07:48:41;10.85;;;5.93;;
51036;SDS011;37064;59.346;18.058;2023-03-19T07:51:08;9.40;;;5.72;;
51036;SDS011;37064;59.346;18.058;2023-03-19T07:53:34;10.32;;;6.30;;
51036;SDS011;37064;59.346;18.058;2023-03-19T07:55:59;10.48;;;5.32;;
51036;SDS011;37064;59.346;18.058;2023-03-19T07:58:25;11.05;;;5.78;;
51036;SDS011;37064;59.346;18.058;2023-03-19T08:00:52;10.55;;;5.72;;
51036;SDS011;37064;59.346;18.058;2023-03-19T08:03:18;10.38;;;6.25;;
51036;SDS011;37064;59.346;18.058;2023-03-19T08:05:46;9.13;;;5.07;;
51036;SDS011;37064;59.346;18.058;2023-03-19T08:08:12;9.73;;;5.93;;
51036;SDS011;37064;59.346;18.058;2023-03-19T08:10:39;9.15;;;5.80;;
51036;SDS011;37064;59.346;18.058;2023-03-19T08:13:05;9.73;;;5.97;;
51036;SDS011;37064;59.346;18.058;2023-03-19T08:15:31;12.32;;;6.50;;
51036;SDS011;37064;59.346;18.058;2023-03-19T08:17:58;9.98;;;6.60;;
51036;SDS011;37064;59.346;18.058;2023-03-19T08:20:24;12.95;;;6.93;;
51036;SDS011;37064;59.346;18.058;2023-03-19T08:22:50;9.30;;;5.80;;
51036;SDS011;37064;59.346;18.058;2023-03-19T08:25:16;9.77;;;5.80;;
51036;SDS011;37064;59.346;18.058;2023-03-19T08:27:42;11.05;;;6.78;;
51036;SDS011;37064;59.346;18.058;2023-03-19T08:30:09;10.38;;;5.95;;
51036;SDS011;37064;59.346;18.058;2023-03-19T08:32:35;11.77;;;7.10;;
51036;SDS011;37064;59.346;18.058;2023-03-19T08:35:02;12.27;;;7.38;;
51036;SDS011;37064;59.346;18.058;2023-03-19T08:37:28;11.85;;;6.72;;
51036;SDS011;37064;59.346;18.058;2023-03-19T08:39:54;10.13;;;6.28;;
51036;SDS011;37064;59.346;18.058;2023-03-19T08:42:21;15.85;;;8.60;;
51036;SDS011;37064;59.346;18.058;2023-03-19T08:44:47;11.73;;;7.25;;
51036;SDS011;37064;59.346;18.058;2023-03-19T08:47:13;9.98;;;5.97;;
51036;SDS011;37064;59.346;18.058;2023-03-19T08:49:39;10.48;;;7.00;;
51036;SDS011;37064;59.346;18.058;2023-03-19T08:52:06;11.10;;;6.55;;
51036;SDS011;37064;59.346;18.058;2023-03-19T08:54:32;10.30;;;6.13;;
51036;SDS011;37064;59.346;18.058;2023-03-19T08:56:59;12.05;;;6.90;;
51036;SDS011;37064;59.346;18.058;2023-03-19T08:59:25;13.60;;;6.68;;
51036;SDS011;37064;59.346;18.058;2023-03-19T09:01:52;10.45;;;6.28;;
51036;SDS011;37064;59.346;18.058;2023-03-19T09:04:19;9.63;;;6.35;;
51036;SDS011;37064;59.346;18.058;2023-03-19T09:06:45;10.13;;;5.85;;
51036;SDS011;37064;59.346;18.058;2023-03-19T09:09:15;12.35;;;7.53;;
51036;SDS011;37064;59.346;18.058;2023-03-19T09:11:41;11.30;;;6.75;;
51036;SDS011;37064;59.346;18.058;2023-03-19T09:14:07;9.55;;;5.85;;
51036;SDS011;37064;59.346;18.058;2023-03-19T09:16:35;10.43;;;5.97;;
51036;SDS011;37064;59.346;18.058;2023-03-19T09:19:01;10.18;;;5.97;;
51036;SDS011;37064;59.346;18.058;2023-03-19T09:21:28;10.35;;;5.90;;
51036;SDS011;37064;59.346;18.058;2023-03-19T09:23:53;11.10;;;6.55;;
51036;SDS011;37064;59.346;18.058;2023-03-19T09:26:20;9.88;;;6.60;;
51036;SDS011;37064;59.346;18.058;2023-03-19T09:28:46;9.85;;;5.97;;
51036;SDS011;37064;59.346;18.058;2023-03-19T09:31:12;12.90;;;7.07;;
51036;SDS011;37064;59.346;18.058;2023-03-19T09:33:38;12.43;;;6.55;;
51036;SDS011;37064;59.346;18.058;2023-03-19T09:36:04;12.45;;;7.22;;
51036;SDS011;37064;59.346;18.058;2023-03-19T09:38:30;11.38;;;6.97;;
51036;SDS011;37064;59.346;18.058;2023-03-19T09:46:38;15.57;;;10.45;;
51036;SDS011;37064;59.346;18.058;2023-03-19T09:51:59;9.23;;;6.22;;
51036;SDS011;37064;59.346;18.058;2023-03-19T09:54:35;10.88;;;6.18;;
51036;SDS011;37064;59.346;18.058;2023-03-19T09:57:02;9.73;;;6.72;;
51036;SDS011;37064;59.346;18.058;2023-03-19T09:59:28;11.15;;;6.13;;
51036;SDS011;37064;59.346;18.058;2023-03-19T10:02:12;10.40;;;6.25;;
51036;SDS011;37064;59.346;18.058;2023-03-19T10:04:42;11.68;;;5.97;;
51036;SDS011;37064;59.346;18.058;2023-03-19T10:09:57;10.98;;;6.60;;
51036;SDS011;37064;59.346;18.058;2023-03-19T10:17:34;12.13;;;8.00;;
51036;SDS011;37064;59.346;18.058;2023-03-19T10:22:34;11.27;;;7.80;;
51036;SDS011;37064;59.346;18.058;2023-03-19T10:25:00;9.63;;;6.65;;
51036;SDS011;37064;59.346;18.058;2023-03-19T10:27:27;11.77;;;7.45;;
51036;SDS011;37064;59.346;18.058;2023-03-19T10:29:54;10.10;;;6.85;;
51036;SDS011;37064;59.346;18.058;2023-03-19T10:34:53;10.00;;;6.82;;
51036;SDS011;37064;59.346;18.058;2023-03-19T10:37:22;11.40;;;6.93;;
51036;SDS011;37064;59.346;18.058;2023-03-19T10:39:50;12.07;;;7.20;;
51036;SDS011;37064;59.346;18.058;2023-03-19T10:45:04;12.95;;;7.13;;
51036;SDS011;37064;59.346;18.058;2023-03-19T10:47:39;11.50;;;7.05;;
51036;SDS011;37064;59.346;18.058;2023-03-19T10:50:06;12.30;;;8.15;;
51036;SDS011;37064;59.346;18.058;2023-03-19T10:52:35;13.15;;;7.93;;
51036;SDS011;37064;59.346;18.058;2023-03-19T10:55:12;10.75;;;6.75;;
51036;SDS011;37064;59.346;18.058;2023-03-19T10:57:43;14.98;;;8.02;;
51036;SDS011;37064;59.346;18.058;2023-03-19T11:02:46;10.68;;;7.38;;
51036;SDS011;37064;59.346;18.058;2023-03-19T11:07:38;11.25;;;7.40;;
51036;SDS011;37064;59.346;18.058;2023-03-19T11:10:11;11.90;;;7.38;;
51036;SDS011;37064;59.346;18.058;2023-03-19T11:12:38;12.38;;;7.30;;
51036;SDS011;37064;59.346;18.058;2023-03-19T11:15:11;12.93;;;7.22;;
51036;SDS011;37064;59.346;18.058;2023-03-19T11:17:45;10.05;;;6.90;;
51036;SDS011;37064;59.346;18.058;2023-03-19T11:22:40;9.68;;;5.78;;
51036;SDS011;37064;59.346;18.058;2023-03-19T11:25:26;10.23;;;6.95;;
51036;SDS011;37064;59.346;18.058;2023-03-19T11:27:57;9.32;;;6.38;;
51036;SDS011;37064;59.346;18.058;2023-03-19T11:30:23;7.82;;;4.78;;
51036;SDS011;37064;59.346;18.058;2023-03-19T11:38:06;6.90;;;4.65;;
51036;SDS011;37064;59.346;18.058;2023-03-19T11:40:40;5.70;;;4.95;;
51036;SDS011;37064;59.346;18.058;2023-03-19T11:56:21;4.90;;;3.90;;
51036;SDS011;37064;59.346;18.058;2023-03-19T12:04:12;6.40;;;4.13;;
51036;SDS011;37064;59.346;18.058;2023-03-19T12:06:49;4.95;;;3.75;;
51036;SDS011;37064;59.346;18.058;2023-03-19T12:09:21;4.32;;;3.72;;
51036;SDS011;37064;59.346;18.058;2023-03-19T12:14:32;6.18;;;4.28;;
51036;SDS011;37064;59.346;18.058;2023-03-19T12:17:15;6.60;;;4.05;;
51036;SDS011;37064;59.346;18.058;2023-03-19T12:22:28;6.07;;;4.18;;
51036;SDS011;37064;59.346;18.058;2023-03-19T12:30:19;5.47;;;4.03;;
51036;SDS011;37064;59.346;18.058;2023-03-19T12:35:21;5.05;;;4.03;;
51036;SDS011;37064;59.346;18.058;2023-03-19T12:40:25;6.70;;;4.75;;
51036;SDS011;37064;59.346;18.058;2023-03-19T12:42:52;5.32;;;3.88;;
51036;SDS011;37064;59.346;18.058;2023-03-19T12:45:36;6.53;;;4.07;;
51036;SDS011;37064;59.346;18.058;2023-03-19T12:48:04;6.55;;;4.57;;
51036;SDS011;37064;59.346;18.058;2023-03-19T12:52:58;6.10;;;4.03;;
51036;SDS011;37064;59.346;18.058;2023-03-19T12:57:57;6.65;;;4.57;;
51036;SDS011;37064;59.346;18.058;2023-03-19T13:00:29;7.43;;;5.38;;
51036;SDS011;37064;59.346;18.058;2023-03-19T13:03:12;5.82;;;4.35;;
51036;SDS011;37064;59.346;18.058;2023-03-19T13:06:46;7.18;;;4.95;;
51036;SDS011;37064;59.346;18.058;2023-03-19T13:08:46;7.93;;;4.95;;
51036;SDS011;37064;59.346;18.058;2023-03-19T13:11:36;6.60;;;4.65;;
51036;SDS011;37064;59.346;18.058;2023-03-19T13:16:49;8.00;;;4.53;;
51036;SDS011;37064;59.346;18.058;2023-03-19T13:19:20;7.60;;;4.47;;
51036;SDS011;37064;59.346;18.058;2023-03-19T13:21:50;8.40;;;4.47;;
51036;SDS011;37064;59.346;18.058;2023-03-19T13:24:19;6.25;;;4.55;;
51036;SDS011;37064;59.346;18.058;2023-03-19T13:26:47;7.35;;;4.57;;
51036;SDS011;37064;59.346;18.058;2023-03-19T13:29:21;6.30;;;3.85;;
51036;SDS011;37064;59.346;18.058;2023-03-19T13:31:47;9.57;;;3.58;;
51036;SDS011;37064;59.346;18.058;2023-03-19T13:36:44;5.22;;;3.47;;
51036;SDS011;37064;59.346;18.058;2023-03-19T13:39:13;5.55;;;3.35;;
51036;SDS011;37064;59.346;18.058;2023-03-19T13:46:51;4.25;;;3.53;;
51036;SDS011;37064;59.346;18.058;2023-03-19T13:49:30;4.80;;;3.58;;
51036;SDS011;37064;59.346;18.058;2023-03-19T13:54:44;5.15;;;3.97;;
51036;SDS011;37064;59.346;18.058;2023-03-19T13:59:42;6.05;;;3.88;;
51036;SDS011;37064;59.346;18.058;2023-03-19T14:04:42;5.30;;;3.53;;
51036;SDS011;37064;59.346;18.058;2023-03-19T14:09:41;4.72;;;3.70;;
51036;SDS011;37064;59.346;18.058;2023-03-19T14:14:38;5.30;;;3.47;;
51036;SDS011;37064;59.346;18.058;2023-03-19T14:17:04;6.13;;;3.22;;
51036;SDS011;37064;59.346;18.058;2023-03-19T14:19:39;5.13;;;3.22;;
51036;SDS011;37064;59.346;18.058;2023-03-19T14:22:15;4.97;;;3.85;;
51036;SDS011;37064;59.346;18.058;2023-03-19T14:27:29;6.05;;;4.00;;
51036;SDS011;37064;59.346;18.058;2023-03-19T14:29:57;4.47;;;3.55;;
51036;SDS011;37064;59.346;18.058;2023-03-19T14:32:25;6.35;;;3.70;;
51036;SDS011;37064;59.346;18.058;2023-03-19T14:34:53;4.88;;;3.85;;
51036;SDS011;37064;59.346;18.058;2023-03-19T14:37:30;4.78;;;3.65;;
51036;SDS011;37064;59.346;18.058;2023-03-19T14:42:30;5.30;;;2.95;;
51036;SDS011;37064;59.346;18.058;2023-03-19T14:47:45;3.87;;;2.87;;
51036;SDS011;37064;59.346;18.058;2023-03-19T14:55:33;4.80;;;3.28;;
51036;SDS011;37064;59.346;18.058;2023-03-19T14:57:59;3.88;;;2.95;;
51036;SDS011;37064;59.346;18.058;2023-03-19T15:00:26;5.05;;;3.47;;
51036;SDS011;37064;59.346;18.058;2023-03-19T15:02:52;4.55;;;3.50;;
51036;SDS011;37064;59.346;18.058;2023-03-19T15:07:44;6.30;;;3.45;;
51036;SDS011;37064;59.346;18.058;2023-03-19T15:10:18;5.35;;;3.75;;
51036;SDS011;37064;59.346;18.058;2023-03-19T15:15:16;4.55;;;3.30;;
51036;SDS011;37064;59.346;18.058;2023-03-19T15:17:45;6.88;;;3.80;;
51036;SDS011;37064;59.346;18.058;2023-03-19T15:20:17;5.63;;;3.80;;
51036;SDS011;37064;59.346;18.058;2023-03-19T15:22:51;5.57;;;3.70;;
51036;SDS011;37064;59.346;18.058;2023-03-19T15:25:18;4.65;;;3.10;;
51036;SDS011;37064;59.346;18.058;2023-03-19T15:27:44;6.13;;;3.80;;
51036;SDS011;37064;59.346;18.058;2023-03-19T15:30:31;5.43;;;3.63;;
51036;SDS011;37064;59.346;18.058;2023-03-19T15:32:56;6.13;;;4.15;;
51036;SDS011;37064;59.346;18.058;2023-03-19T15:35:24;8.15;;;4.78;;
51036;SDS011;37064;59.346;18.058;2023-03-19T15:37:52;8.90;;;4.00;;
51036;SDS011;37064;59.346;18.058;2023-03-19T15:40:20;7.03;;;4.65;;
51036;SDS011;37064;59.346;18.058;2023-03-19T15:42:48;7.05;;;4.50;;
51036;SDS011;37064;59.346;18.058;2023-03-19T15:45:17;6.15;;;4.63;;
51036;SDS011;37064;59.346;18.058;2023-03-19T15:47:46;6.68;;;4.38;;
51036;SDS011;37064;59.346;18.058;2023-03-19T15:50:17;7.85;;;4.65;;
51036;SDS011;37064;59.346;18.058;2023-03-19T15:52:45;8.32;;;5.38;;
51036;SDS011;37064;59.346;18.058;2023-03-19T15:55:13;6.85;;;5.13;;
51036;SDS011;37064;59.346;18.058;2023-03-19T15:57:40;9.57;;;6.00;;
51036;SDS011;37064;59.346;18.058;2023-03-19T16:00:07;9.50;;;5.40;;
51036;SDS011;37064;59.346;18.058;2023-03-19T16:02:34;8.10;;;5.30;;
51036;SDS011;37064;59.346;18.058;2023-03-19T16:05:01;8.70;;;5.25;;
51036;SDS011;37064;59.346;18.058;2023-03-19T16:09:59;6.90;;;5.30;;
51036;SDS011;37064;59.346;18.058;2023-03-19T16:12:38;9.55;;;6.43;;
51036;SDS011;37064;59.346;18.058;2023-03-19T16:15:27;9.65;;;6.45;;
51036;SDS011;37064;59.346;18.058;2023-03-19T16:18:40;10.27;;;6.05;;
51036;SDS011;37064;59.346;18.058;2023-03-19T16:21:11;11.40;;;6.30;;
51036;SDS011;37064;59.346;18.058;2023-03-19T16:23:34;11.25;;;5.95;;
51036;SDS011;37064;59.346;18.058;2023-03-19T16:26:04;10.00;;;6.13;;
51036;SDS011;37064;59.346;18.058;2023-03-19T16:28:32;9.70;;;6.10;;